createdAt,value
2023-03-31T00:00:42.408Z,0.79
2023-03-31T00:03:09.475Z,0.88
2023-03-31T00:05:36.719Z,1.04
2023-03-31T00:08:03.981Z,0.95
2023-03-31T00:10:34.147Z,1.05
2023-03-31T00:13:01.614Z,1.27
2023-03-31T00:15:29.090Z,1.37
2023-03-31T00:17:57.301Z,1.31
2023-03-31T00:20:24.133Z,1.07
2023-03-31T00:22:50.895Z,1.22
2023-03-31T00:25:17.639Z,1.26
2023-03-31T00:27:46.380Z,1.24
2023-03-31T00:30:14.455Z,1.29
2023-03-31T00:32:41.549Z,1.38
2023-03-31T00:35:08.979Z,1.85
2023-03-31T00:37:36.142Z,1.79
2023-03-31T00:40:04.252Z,1.78
2023-03-31T00:42:30.992Z,1.99
2023-03-31T00:45:28.419Z,1.92
2023-03-31T00:48:01.145Z,2.04
2023-03-31T00:50:32.100Z,2.79
2023-03-31T00:53:02.003Z,3.05
2023-03-31T00:55:34.750Z,3.37
2023-03-31T00:58:02.554Z,3.19
2023-03-31T01:00:30.787Z,2.71
2023-03-31T01:03:01.425Z,2.68
2023-03-31T01:05:32.928Z,2.66
2023-03-31T01:08:01.030Z,2.63
2023-03-31T01:10:29.721Z,2.70
2023-03-31T01:12:57.829Z,3.29
2023-03-31T01:15:24.662Z,3.50
2023-03-31T01:17:53.902Z,3.47
2023-03-31T01:20:32.006Z,3.25
2023-03-31T01:23:25.266Z,3.51
2023-03-31T01:26:25.254Z,3.56
2023-03-31T01:28:58.684Z,3.77
2023-03-31T01:32:15.761Z,3.49
2023-03-31T01:35:09.605Z,4.02
2023-03-31T01:38:15.380Z,3.69
2023-03-31T01:41:03.934Z,3.74
2023-03-31T01:43:37.643Z,3.33
2023-03-31T01:46:16.176Z,3.25
2023-03-31T01:48:51.385Z,3.40
2023-03-31T01:51:22.206Z,3.65
2023-03-31T01:53:54.626Z,3.80
2023-03-31T01:56:30.534Z,4.31
2023-03-31T01:59:01.919Z,4.43
2023-03-31T02:01:36.276Z,4.39
2023-03-31T02:04:11.255Z,4.62
2023-03-31T02:06:43.108Z,4.14
2023-03-31T02:09:14.555Z,3.91
2023-03-31T02:11:44.614Z,4.23
2023-03-31T02:14:14.984Z,3.94
2023-03-31T02:16:44.794Z,4.55
2023-03-31T02:19:12.073Z,4.29
2023-03-31T02:21:40.605Z,3.75
2023-03-31T02:24:10.944Z,3.51
2023-03-31T02:26:42.401Z,4.01
2023-03-31T02:29:10.761Z,3.80
2023-03-31T02:31:47.593Z,3.78
2023-03-31T02:34:14.784Z,3.89
2023-03-31T02:36:42.360Z,3.82
2023-03-31T02:39:11.897Z,4.17
2023-03-31T02:41:38.758Z,4.09
2023-03-31T02:44:05.749Z,3.99
2023-03-31T02:46:34.123Z,4.19
2023-03-31T02:49:04.240Z,4.19
2023-03-31T02:52:02.009Z,4.26
2023-03-31T02:54:48.841Z,3.92
2023-03-31T02:57:49.133Z,3.55
2023-03-31T03:00:24.105Z,3.71
2023-03-31T03:03:11.607Z,3.89
2023-03-31T03:05:45.970Z,4.09
2023-03-31T03:08:21.485Z,4.02
2023-03-31T03:11:01.787Z,3.65
2023-03-31T03:13:34.957Z,3.18
2023-03-31T03:16:05.854Z,3.11
2023-03-31T03:18:34.500Z,3.08
2023-03-31T03:21:01.266Z,3.16
2023-03-31T03:23:28.061Z,2.92
2023-03-31T03:25:55.140Z,2.65
2023-03-31T03:28:24.925Z,3.07
2023-03-31T03:30:51.666Z,3.09
2023-03-31T03:33:18.491Z,3.63
2023-03-31T03:35:46.708Z,3.39
2023-03-31T03:38:13.541Z,3.12
2023-03-31T03:40:40.331Z,3.13
2023-03-31T03:43:07.101Z,2.81
2023-03-31T03:45:33.900Z,2.76
2023-03-31T03:48:00.795Z,2.78
2023-03-31T03:50:27.713Z,3.37
2023-03-31T03:52:55.851Z,2.95
2023-03-31T03:55:22.583Z,3.09
2023-03-31T03:57:49.438Z,3.18
2023-03-31T04:00:16.460Z,3.16
2023-03-31T04:02:43.356Z,3.31
2023-03-31T04:05:10.251Z,3.47
2023-03-31T04:07:36.981Z,3.20
2023-03-31T04:10:06.124Z,3.06
2023-03-31T04:12:34.264Z,3.28
2023-03-31T04:15:01.079Z,3.08
2023-03-31T04:17:27.866Z,2.83
2023-03-31T04:19:54.641Z,2.70
2023-03-31T04:22:21.348Z,3.25
2023-03-31T04:24:48.124Z,3.10
2023-03-31T04:27:16.324Z,3.21
2023-03-31T04:29:43.128Z,3.42
2023-03-31T04:32:09.983Z,3.32
2023-03-31T04:34:36.827Z,3.15
2023-03-31T04:37:03.888Z,2.72
2023-03-31T04:39:31.104Z,2.75
2023-03-31T04:41:58.608Z,2.85
2023-03-31T04:44:27.342Z,3.10
2023-03-31T04:46:54.615Z,3.33
2023-03-31T04:49:21.537Z,3.34
2023-03-31T04:51:48.322Z,3.32
2023-03-31T04:54:15.263Z,3.89
2023-03-31T04:56:42.253Z,3.68
2023-03-31T04:59:09.126Z,3.48
2023-03-31T05:01:37.305Z,3.59
2023-03-31T05:04:04.782Z,3.66
2023-03-31T05:06:31.964Z,3.71
2023-03-31T05:08:58.712Z,3.82
2023-03-31T05:11:25.593Z,4.11
2023-03-31T05:13:52.378Z,4.37
2023-03-31T05:16:19.216Z,4.22
2023-03-31T05:18:47.607Z,4.12
2023-03-31T05:21:16.425Z,3.67
2023-03-31T05:23:44.204Z,3.58
2023-03-31T05:26:11.504Z,4.10
2023-03-31T05:28:39.253Z,3.99
2023-03-31T05:31:08.157Z,4.14
2023-03-31T05:33:35.342Z,3.91
2023-03-31T05:36:03.784Z,4.08
2023-03-31T05:38:31.447Z,4.58
2023-03-31T05:40:58.304Z,4.45
2023-03-31T05:43:25.220Z,4.05
2023-03-31T05:45:52.379Z,3.89
2023-03-31T05:48:19.257Z,4.65
2023-03-31T05:50:46.042Z,4.39
2023-03-31T05:53:14.477Z,3.91
2023-03-31T05:55:41.341Z,4.14
2023-03-31T05:58:08.107Z,4.53
2023-03-31T06:00:35.898Z,4.94
2023-03-31T06:03:03.170Z,4.72
2023-03-31T06:05:30.453Z,4.77
2023-03-31T06:07:57.271Z,4.84
2023-03-31T06:10:25.415Z,5.43
2023-03-31T06:12:52.229Z,6.00
2023-03-31T06:15:19.173Z,5.41
2023-03-31T06:17:46.042Z,4.90
2023-03-31T06:20:24.647Z,4.73
2023-03-31T06:22:54.533Z,4.51
2023-03-31T06:25:21.312Z,4.18
2023-03-31T06:27:49.451Z,4.37
2023-03-31T06:30:16.522Z,4.25
2023-03-31T06:32:43.443Z,4.31
2023-03-31T06:35:10.226Z,4.05
2023-03-31T06:37:36.958Z,5.05
2023-03-31T06:40:04.149Z,8.02
2023-03-31T06:42:30.966Z,9.38
2023-03-31T06:45:00.045Z,10.91
2023-03-31T06:47:26.940Z,10.80
2023-03-31T06:49:54.028Z,9.53
2023-03-31T06:52:21.077Z,9.44
2023-03-31T06:54:47.918Z,9.19
2023-03-31T06:57:16.792Z,9.39
2023-03-31T06:59:43.855Z,9.10
2023-03-31T07:02:12.406Z,8.99
2023-03-31T07:04:39.355Z,9.51
2023-03-31T07:07:06.196Z,9.24
2023-03-31T07:09:32.945Z,9.09
2023-03-31T07:12:00.122Z,8.62
2023-03-31T07:14:27.197Z,7.42
2023-03-31T07:16:54.540Z,6.94
2023-03-31T07:19:22.925Z,6.35
2023-03-31T07:21:50.260Z,5.57
2023-03-31T07:24:17.613Z,4.64
2023-03-31T07:26:44.615Z,3.71
2023-03-31T07:29:11.449Z,3.30
2023-03-31T07:31:38.355Z,3.08
2023-03-31T07:34:05.674Z,3.05
2023-03-31T07:36:34.012Z,3.05
2023-03-31T07:39:00.898Z,3.02
2023-03-31T07:41:27.726Z,3.31
2023-03-31T07:43:54.711Z,3.24
2023-03-31T07:46:23.678Z,3.30
2023-03-31T07:48:51.857Z,2.91
2023-03-31T07:51:21.299Z,2.89
2023-03-31T07:53:49.834Z,2.97
2023-03-31T07:56:16.951Z,3.03
2023-03-31T07:58:43.891Z,3.11
2023-03-31T08:01:13.152Z,3.82
2023-03-31T08:03:40.157Z,4.62
2023-03-31T08:06:07.356Z,4.47
2023-03-31T08:08:34.699Z,4.64
2023-03-31T08:11:02.901Z,4.44
2023-03-31T08:13:30.095Z,3.93
2023-03-31T08:15:57.032Z,3.35
2023-03-31T08:18:23.951Z,3.54
2023-03-31T08:20:50.930Z,3.65
2023-03-31T08:23:18.085Z,3.82
2023-03-31T08:25:44.957Z,3.46
2023-03-31T08:28:13.482Z,3.48
2023-03-31T08:30:40.680Z,3.44
2023-03-31T08:33:07.995Z,3.41
2023-03-31T08:35:35.633Z,3.52
2023-03-31T08:38:02.453Z,2.85
2023-03-31T08:40:30.996Z,2.83
2023-03-31T08:43:02.383Z,2.58
2023-03-31T08:45:34.519Z,2.33
2023-03-31T08:48:07.358Z,2.40
2023-03-31T08:50:40.314Z,2.68
2023-03-31T08:53:13.806Z,2.77
2023-03-31T08:55:48.880Z,2.69
2023-03-31T08:58:29.461Z,2.59
2023-03-31T09:01:03.861Z,2.56
2023-03-31T09:03:40.892Z,3.26
2023-03-31T09:06:13.609Z,5.02
2023-03-31T09:08:42.326Z,4.63
2023-03-31T09:11:14.243Z,3.88
2023-03-31T09:14:11.708Z,8.07
2023-03-31T09:16:48.479Z,5.60
2023-03-31T09:19:20.665Z,4.41
2023-03-31T09:21:51.265Z,4.77
2023-03-31T09:24:21.413Z,3.55
2023-03-31T09:26:53.320Z,2.87
2023-03-31T09:29:24.210Z,2.44
2023-03-31T09:31:52.938Z,2.05
2023-03-31T09:34:25.299Z,2.39
2023-03-31T09:36:52.139Z,2.55
2023-03-31T09:39:18.888Z,2.33
2023-03-31T09:41:48.825Z,2.05
2023-03-31T09:44:24.726Z,1.87
2023-03-31T09:46:56.092Z,2.24
2023-03-31T09:49:26.409Z,2.18
2023-03-31T09:52:02.276Z,7.48
2023-03-31T09:54:36.098Z,4.83
2023-03-31T09:57:12.600Z,4.46
2023-03-31T09:59:39.481Z,3.22
2023-03-31T10:02:35.165Z,2.58
2023-03-31T10:05:03.339Z,3.47
2023-03-31T10:07:30.709Z,2.27
2023-03-31T10:09:57.604Z,1.74
2023-03-31T10:12:28.292Z,1.35
2023-03-31T10:15:03.955Z,1.37
2023-03-31T10:17:46.964Z,2.57
2023-03-31T10:20:31.585Z,1.82
2023-03-31T10:23:03.663Z,1.37
2023-03-31T10:25:33.008Z,1.09
2023-03-31T10:28:02.132Z,0.94
2023-03-31T10:30:36.495Z,0.76
2023-03-31T10:38:23.892Z,0.88
2023-03-31T10:40:53.075Z,0.70
2023-03-31T10:43:24.634Z,0.50
2023-03-31T10:45:52.394Z,0.41
2023-03-31T10:48:25.411Z,0.38
2023-03-31T10:50:52.313Z,0.30
2023-03-31T10:53:19.606Z,0.27
2023-03-31T10:55:56.057Z,0.29
2023-03-31T10:58:36.273Z,0.42
2023-03-31T11:01:14.803Z,0.37
2023-03-31T11:03:57.948Z,0.29
2023-03-31T11:06:32.923Z,0.20
2023-03-31T11:09:14.107Z,0.58
2023-03-31T11:11:56.550Z,0.52
2023-03-31T11:14:40.342Z,0.39
2023-03-31T11:17:22.997Z,0.30
2023-03-31T11:20:00.289Z,0.23
2023-03-31T11:22:34.860Z,0.21
2023-03-31T11:25:14.673Z,0.16
2023-03-31T11:27:55.516Z,0.13
2023-03-31T11:30:28.762Z,0.12
2023-03-31T11:33:16.795Z,0.15
2023-03-31T11:35:56.602Z,0.12
2023-03-31T11:38:44.096Z,0.11
2023-03-31T11:41:15.573Z,0.20
2023-03-31T11:43:46.826Z,1.26
2023-03-31T11:46:17.440Z,0.76
2023-03-31T11:48:48.551Z,0.85
2023-03-31T11:51:21.895Z,0.55
2023-03-31T11:53:55.507Z,0.40
2023-03-31T11:56:27.333Z,0.39
2023-03-31T11:58:57.764Z,0.41
2023-03-31T12:01:30.224Z,0.36
2023-03-31T12:04:04.028Z,0.33
2023-03-31T12:06:35.238Z,0.32
2023-03-31T12:09:13.036Z,0.37
2023-03-31T12:11:46.449Z,0.64
2023-03-31T12:14:24.494Z,0.59
2023-03-31T12:16:54.447Z,0.72
2023-03-31T12:19:25.527Z,0.80
2023-03-31T12:21:57.040Z,0.82
2023-03-31T12:24:23.828Z,0.98
2023-03-31T12:26:59.729Z,0.72
2023-03-31T12:29:30.810Z,0.55
2023-03-31T12:32:01.792Z,0.50
2023-03-31T12:34:31.381Z,0.52
2023-03-31T12:37:08.973Z,0.42
2023-03-31T12:39:44.965Z,0.36
2023-03-31T12:42:42.640Z,0.37
2023-03-31T12:45:18.651Z,0.39
2023-03-31T12:48:18.515Z,0.49
2023-03-31T12:51:02.573Z,0.64
2023-03-31T12:53:39.001Z,0.89
2023-03-31T12:56:06.236Z,0.93
2023-03-31T12:58:42.163Z,0.79
2023-03-31T13:01:12.497Z,0.84
2023-03-31T13:03:48.629Z,0.82
2023-03-31T13:06:51.139Z,0.85
2023-03-31T13:09:42.357Z,0.88
2023-03-31T13:12:14.674Z,0.82
2023-03-31T13:14:44.377Z,0.75
2023-03-31T13:17:22.762Z,0.77
2023-03-31T13:19:50.469Z,0.69
2023-03-31T13:22:35.563Z,0.76
2023-03-31T13:25:34.463Z,0.80
2023-03-31T13:28:11.071Z,0.82
2023-03-31T13:30:51.790Z,0.79
2023-03-31T13:33:26.953Z,1.12
2023-03-31T13:36:05.390Z,0.85
2023-03-31T13:38:45.779Z,0.79
2023-03-31T13:41:29.148Z,3.46
2023-03-31T13:44:10.374Z,2.39
2023-03-31T13:46:52.396Z,3.00
2023-03-31T13:49:54.465Z,2.04
2023-03-31T13:52:35.449Z,1.18
2023-03-31T13:55:48.404Z,0.73
2023-03-31T13:58:53.378Z,0.48
2023-03-31T14:01:40.323Z,0.40
2023-03-31T14:04:22.767Z,0.30
2023-03-31T14:06:55.081Z,0.21
2023-03-31T14:09:25.772Z,0.16
2023-03-31T14:11:52.565Z,0.47
2023-03-31T14:14:20.699Z,0.34
2023-03-31T14:16:50.891Z,0.23
2023-03-31T14:19:46.161Z,0.22
2023-03-31T14:22:23.093Z,0.16
2023-03-31T14:24:55.282Z,0.09
2023-03-31T14:27:45.740Z,0.05
2023-03-31T14:30:23.646Z,0.03
2023-03-31T14:33:15.501Z,0.02
2023-03-31T14:35:47.384Z,0.23
2023-03-31T14:38:18.842Z,0.12
2023-03-31T14:40:47.770Z,0.16
2023-03-31T14:43:21.219Z,0.13
2023-03-31T14:45:57.724Z,0.08
2023-03-31T14:48:24.549Z,0.09
2023-03-31T14:50:57.560Z,0.05
2023-03-31T14:53:25.771Z,0.02
2023-03-31T14:55:59.646Z,0.01
2023-03-31T14:58:48.687Z,0.05
2023-03-31T15:01:38.507Z,0.03
2023-03-31T15:04:41.524Z,0.02
2023-03-31T15:07:10.193Z,0.01
2023-03-31T15:09:38.165Z,0.00
2023-03-31T15:12:11.427Z,0.05
2023-03-31T15:14:45.552Z,0.07
2023-03-31T15:17:20.338Z,0.13
2023-03-31T15:19:54.378Z,0.12
2023-03-31T15:22:22.729Z,0.20
2023-03-31T15:24:49.494Z,0.15
2023-03-31T15:27:35.811Z,0.13
2023-03-31T15:30:08.464Z,0.11
2023-03-31T15:32:39.343Z,0.10
2023-03-31T15:37:47.955Z,0.03
2023-03-31T15:40:20.645Z,0.13
2023-03-31T15:43:01.690Z,0.10
2023-03-31T15:45:49.406Z,0.05
2023-03-31T15:48:30.040Z,0.03
2023-03-31T15:51:01.066Z,0.03
2023-03-31T15:53:35.707Z,0.01
2023-03-31T15:56:02.880Z,0.05
2023-03-31T15:58:54.761Z,0.08
2023-03-31T16:01:22.718Z,0.04
2023-03-31T16:03:52.949Z,0.07
2023-03-31T16:06:24.064Z,0.08
2023-03-31T16:09:00.164Z,0.09
2023-03-31T16:11:33.342Z,0.05
2023-03-31T16:14:06.143Z,0.03
2023-03-31T16:16:33.893Z,0.01
2023-03-31T16:19:05.515Z,0.01
2023-03-31T16:21:37.957Z,0.00
2023-03-31T16:24:05.375Z,0.00
2023-03-31T16:26:32.827Z,0.00
2023-03-31T16:29:00.587Z,0.05
2023-03-31T16:31:29.975Z,0.07
2023-03-31T16:33:59.131Z,0.06
2023-03-31T16:36:27.392Z,0.08
2023-03-31T16:38:54.500Z,1.84
2023-03-31T16:41:21.806Z,3.34
2023-03-31T16:43:48.649Z,1.87
2023-03-31T16:46:15.535Z,1.09
2023-03-31T16:48:42.436Z,0.58
2023-03-31T16:51:09.196Z,0.35
2023-03-31T16:53:37.852Z,0.28
2023-03-31T16:56:05.607Z,0.19
2023-03-31T16:58:32.402Z,0.14
2023-03-31T17:00:59.584Z,0.12
2023-03-31T17:03:27.068Z,0.06
2023-03-31T17:05:57.652Z,0.03
2023-03-31T17:08:26.728Z,0.02
2023-03-31T17:10:56.544Z,0.01
2023-03-31T17:13:23.402Z,0.01
2023-03-31T17:15:52.117Z,0.00
2023-03-31T17:18:22.835Z,0.00
2023-03-31T17:20:49.656Z,0.00
2023-03-31T17:23:16.458Z,0.04
2023-03-31T17:25:47.263Z,0.07
2023-03-31T17:28:15.801Z,0.04
2023-03-31T17:30:43.044Z,0.02
2023-03-31T17:33:10.537Z,0.01
2023-03-31T17:35:37.580Z,0.01
2023-03-31T17:38:04.414Z,0.00
2023-03-31T17:40:31.185Z,0.00
2023-03-31T17:42:57.982Z,0.00
2023-03-31T17:45:26.195Z,0.00
2023-03-31T17:47:53.048Z,0.00
2023-03-31T17:50:20.069Z,0.05
2023-03-31T17:52:47.715Z,0.02
2023-03-31T17:55:14.663Z,0.06
2023-03-31T17:57:41.522Z,0.05
2023-03-31T18:00:09.917Z,0.03
2023-03-31T18:02:38.538Z,0.05
2023-03-31T18:05:06.441Z,0.03
2023-03-31T18:07:33.512Z,0.02
2023-03-31T18:10:00.872Z,0.01
2023-03-31T18:12:28.727Z,0.00
2023-03-31T18:14:55.672Z,0.00
2023-03-31T18:17:23.198Z,0.00
2023-03-31T18:19:51.428Z,0.00
2023-03-31T18:22:18.249Z,0.00
2023-03-31T18:24:45.281Z,0.00
2023-03-31T18:27:12.105Z,0.00
2023-03-31T18:29:39.023Z,0.00
2023-03-31T18:32:05.908Z,0.05
2023-03-31T18:34:32.737Z,0.07
2023-03-31T18:37:00.879Z,0.06
2023-03-31T18:39:27.617Z,0.08
2023-03-31T18:41:54.432Z,0.04
2023-03-31T18:44:21.640Z,0.02
2023-03-31T18:46:48.479Z,0.01
2023-03-31T18:49:15.284Z,0.01
2023-03-31T18:51:42.113Z,0.00
2023-03-31T18:54:10.306Z,0.05
2023-03-31T18:56:37.192Z,0.07
2023-03-31T18:59:04.129Z,0.06
2023-03-31T19:01:31.020Z,0.06
2023-03-31T19:03:58.008Z,0.25
2023-03-31T19:06:24.998Z,0.44
2023-03-31T19:08:51.823Z,1.87
2023-03-31T19:11:22.913Z,1.02
2023-03-31T19:13:49.747Z,0.64
2023-03-31T19:16:16.567Z,0.39
2023-03-31T19:18:43.489Z,0.20
2023-03-31T19:21:10.777Z,0.11
2023-03-31T19:23:37.653Z,0.06
2023-03-31T19:26:05.532Z,0.03
2023-03-31T19:28:33.654Z,0.02
2023-03-31T19:31:04.028Z,0.01
2023-03-31T19:33:30.835Z,0.00
2023-03-31T19:35:57.696Z,0.00
2023-03-31T19:38:24.883Z,0.09
2023-03-31T19:40:51.622Z,0.05
2023-03-31T19:43:20.242Z,0.02
2023-03-31T19:45:49.314Z,0.01
2023-03-31T19:48:16.526Z,0.01
2023-03-31T19:50:46.509Z,0.04
2023-03-31T19:53:13.329Z,0.05
2023-03-31T19:55:40.180Z,0.03
2023-03-31T19:58:06.995Z,0.02
2023-03-31T20:00:33.816Z,0.01
2023-03-31T20:03:02.140Z,0.00
2023-03-31T20:05:31.317Z,0.00
2023-03-31T20:07:58.389Z,0.00
2023-03-31T20:10:25.202Z,0.00
2023-03-31T20:12:51.941Z,0.00
2023-03-31T20:15:18.864Z,0.00
2023-03-31T20:17:45.668Z,0.00
2023-03-31T20:20:13.878Z,0.00
2023-03-31T20:22:40.651Z,0.00
2023-03-31T20:25:08.126Z,0.00
2023-03-31T20:27:34.911Z,0.00
2023-03-31T20:30:01.765Z,0.00
2023-03-31T20:32:28.672Z,0.00
2023-03-31T20:34:55.472Z,0.00
2023-03-31T20:37:23.753Z,0.00
2023-03-31T20:39:50.593Z,0.10
2023-03-31T20:42:17.452Z,0.05
2023-03-31T20:44:44.252Z,0.17
2023-03-31T20:47:10.979Z,0.16
2023-03-31T20:49:37.730Z,0.09
2023-03-31T20:52:04.753Z,0.05
2023-03-31T20:54:32.964Z,0.03
2023-03-31T20:56:59.706Z,0.06
2023-03-31T20:59:26.447Z,0.03
2023-03-31T21:01:53.198Z,0.02
2023-03-31T21:04:20.065Z,0.01
2023-03-31T21:06:47.489Z,0.00
2023-03-31T21:09:15.819Z,0.00
2023-03-31T21:11:44.226Z,0.00
2023-03-31T21:14:13.888Z,0.00
2023-03-31T21:16:40.690Z,0.18
2023-03-31T21:19:07.467Z,0.09
2023-03-31T21:21:37.209Z,0.09
2023-03-31T21:24:04.286Z,0.05
2023-03-31T21:26:31.087Z,0.03
2023-03-31T21:28:59.244Z,0.01
2023-03-31T21:31:26.213Z,0.01
2023-03-31T21:33:53.640Z,0.00
2023-03-31T21:36:22.045Z,0.00
2023-03-31T21:38:49.224Z,0.00
2023-03-31T21:41:18.438Z,0.00
2023-03-31T21:43:45.570Z,0.00
2023-03-31T21:46:15.680Z,0.00
2023-03-31T21:48:42.580Z,0.00
2023-03-31T21:51:09.459Z,0.00
2023-03-31T21:53:36.218Z,0.00
2023-03-31T21:56:03.440Z,0.00
2023-03-31T21:58:30.421Z,0.00
2023-03-31T22:00:58.306Z,0.05
2023-03-31T22:03:28.695Z,0.04
2023-03-31T22:05:55.826Z,0.03
2023-03-31T22:08:22.937Z,0.01
2023-03-31T22:10:50.106Z,0.05
2023-03-31T22:13:16.842Z,0.03
2023-03-31T22:15:43.890Z,0.02
2023-03-31T22:18:10.711Z,0.01
2023-03-31T22:20:39.225Z,0.00
2023-03-31T22:23:07.555Z,0.00
2023-03-31T22:25:34.843Z,0.00
2023-03-31T22:28:03.045Z,0.00
2023-03-31T22:30:30.926Z,0.15
2023-03-31T22:32:57.934Z,0.08
2023-03-31T22:35:24.740Z,0.04
2023-03-31T22:37:53.391Z,0.02
2023-03-31T22:40:20.102Z,0.01
2023-03-31T22:42:46.902Z,0.01
2023-03-31T22:45:13.623Z,0.00
2023-03-31T22:47:40.446Z,0.00
2023-03-31T22:50:07.953Z,0.00
2023-03-31T22:52:34.625Z,0.00
2023-03-31T22:55:03.083Z,0.00
2023-03-31T22:57:30.389Z,0.00
2023-03-31T22:59:57.217Z,0.00
2023-03-31T23:02:24.003Z,0.00
2023-03-31T23:04:50.783Z,0.00
2023-03-31T23:07:17.563Z,0.00
2023-03-31T23:09:44.199Z,0.00
2023-03-31T23:12:12.278Z,0.00
2023-03-31T23:14:39.050Z,0.00
2023-03-31T23:17:05.739Z,0.00
2023-03-31T23:19:32.627Z,0.00
2023-03-31T23:21:59.347Z,0.00
2023-03-31T23:24:26.038Z,0.00
2023-03-31T23:26:52.839Z,0.00
2023-03-31T23:29:20.969Z,0.00
2023-03-31T23:31:47.741Z,0.00
2023-03-31T23:34:14.442Z,0.00
2023-03-31T23:36:41.221Z,0.00
2023-03-31T23:39:08.019Z,0.00
2023-03-31T23:41:34.842Z,0.00
2023-03-31T23:44:01.788Z,0.00
2023-03-31T23:46:30.021Z,0.00
2023-03-31T23:48:57.162Z,0.00
2023-03-31T23:51:23.942Z,0.00
2023-03-31T23:53:50.727Z,0.00
2023-03-31T23:56:18.014Z,0.00
2023-03-31T23:58:47.314Z,0.00
